Villach, Austria
Current Conditions -  °F | °C
As of 6:50 AM on Saturday 20 Dec 2014 (Local Time) from LOWK Reporting Station
Moderate Fog Moderate Fog  
Wind Chill: 32°   Ceiling: 200
Heat Index: 32°   Visibility: 0.31mi
Dew Point: 32°   Wind: 1mph
Humidity: 100%   Direction: NA
Pressure: 30.15"   Gusts: NA
Location:  46.62°N, 13.85°E
Report Text: LOWK 200450Z VRB01KT 0500 R10/0550N R28/0600N FG VV002 00/00 Q1021 R10L/19//95 NOSIG
Loading
Personal Weather Stations






























Interactive Weather Map New forecast layout! Learn more

10-Day Weather Forecast

Advertisements
Track Severe Weather on mobile